Boca Raton, FL (33431)

4:24 PM EDT on August 01, 2015 (GMT -0400)
University Gardens | | Change Station
CLOSE
Current Station
Personal Weather Station
Location: Boca Raton, FL
Elevation: 39 ft
Nearby Weather Stations

Elev 39 ft 26.39 °N, 80.09 °W | Updated 4 minutes ago

Mostly Cloudy
Mostly Cloudy
88.0 °F
Feels Like 90 °F
N
9.4
Wind Variable Wind from South
Gusts 12.1 mph

Today
High -- | Low -- °F
--% Chance of Precip.
Yesterday
High -- | Low -- °F
Precip. -- in
6:45 AM 8:07 PM
Full, 97% visible
Pressure 29.96 in
Visibility 10.0 miles
Clouds Clear
Heat Index 90 °F
Dew Point 66 °F
Humidity 48%
Rainfall 0.00 in
Snow Depth Not available.
UV 11 out of 12
Pollen 2.70 out of 12
Air Quality Not available.
Flu Activity Not available.
METAR KPMP 011953Z 15014KT 10SM CLR 32/23 A2996 RMK AO2 LTG DSNT E SLP146 T03170233

More Conditions Fewer Conditions

Pressure 29.96 in
Visibility 10.0 miles
Clouds Clear
Heat Index 90 °F
Dew Point 66 °F
Humidity 48%
Rainfall 0.00 in
Snow Depth Not available.
UV 11 out of 12
Pollen 2.70 out of 12
Air Quality Not available.
Flu Activity Not available.
METAR KPMP 011953Z 15014KT 10SM CLR 32/23 A2996 RMK AO2 LTG DSNT E SLP146 T03170233

More Conditions Fewer Conditions

Nowcast | as of 3:49 PM EDT on August 1, 2015

Showers and thunderstorms will be concentrated over The Everglades and Lake Okeechobee areas this afternoon into the early evening. Movement of the showers and thunderstorms is to the north- northeast and some of these storms will affect Metro Palm Beach County and the beaches late this afternoon. Some of these storms are capable of producing very heavy rainfall leading to flooding, gusty winds in excess of 35 mph, frequent lightning and even small hail. Elsewhere across the area, mostly dry conditions are expected along the Collier County coast the remainder of the afternoon. Over the Miami and Fort Lauderdale Metro area and beaches, mainly dry conditions are also expected although a few showers are not out of the question.

×

10-Day Weather Forecast

×

Almanac

Astronomy

Aug. 01, 2015 Rise Set
Actual Time
Civil Twilight
Nautical Twilight
Astronomical Twilight
Moon
Length of Visible Light
Length of Day
Tomorrow will be .
, % of the Moon is Illuminated

Today's Extremes

State Highs State Lows

Community

WunderPhotos

Upload Photos

1,843,050 photos uploaded!

WunderBlogs® & News

Nearby

Air Quality

  Air Quality AQ Index Pollutant
Not available.

Snow Depth

Station Depth Elevation

Earthquake Activity

City Distance Mag. Time & Date
Minimum magnitude displayed is 2.5.

Coastal Water Temperatures

Place Temperature

Stations

Nearby Weather Stations

Station Location Temp. Windchill Dew Point Humidity Wind Precip. Elev Updated Type